Time;durP1;ratioP1;P1;durP2;ratioP2;P2;SDS_P1;SDS_P2;PMS_P1;PMS_P2;Temp;Humidity;BMP_temperature;BMP_pressure;BME280_temperature;BME280_humidity;BME280_pressure;Samples;Min_cycle;Max_cycle;Signal;HPM_P1;HPM_P2
2023/01/02 00:02:06;;;;;;;52.40;31.80;;;;;;;4.29;100.00;102061.30;105993;1264;59011;-71
2023/01/02 00:04:35;;;;;;;56.90;33.50;;;;;;;4.27;100.00;102059.27;106150;1261;73072;-72
2023/01/02 00:07:05;;;;;;;52.50;30.80;;;;;;;4.28;100.00;102060.30;106044;1256;72396;-72
2023/01/02 00:09:34;;;;;;;50.60;30.50;;;;;;;4.25;100.00;102057.59;105980;1261;60392;-71
2023/01/02 00:12:03;;;;;;;60.40;35.30;;;;;;;4.22;100.00;102061.97;106213;1266;72035;-71
2023/01/02 00:14:32;;;;;;;54.90;32.00;;;;;;;4.20;100.00;102067.55;105884;1260;60797;-71
2023/01/02 00:17:01;;;;;;;48.00;29.60;;;;;;;4.19;100.00;102069.46;106003;1261;61256;-71
2023/01/02 00:19:30;;;;;;;54.80;32.10;;;;;;;4.17;100.00;102068.97;106021;1273;72629;-72
2023/01/02 00:21:59;;;;;;;55.00;32.60;;;;;;;4.15;100.00;102065.42;105940;1264;62453;-70
2023/01/02 00:24:28;;;;;;;51.10;31.30;;;;;;;4.14;100.00;102067.70;105929;1273;70009;-72
2023/01/02 00:26:57;;;;;;;51.90;30.10;;;;;;;4.09;100.00;102068.84;106011;1260;73427;-71
2023/01/02 00:29:26;;;;;;;60.50;34.60;;;;;;;4.07;100.00;102071.30;106035;1261;63307;-71
2023/01/02 00:31:55;;;;;;;59.70;33.30;;;;;;;4.05;100.00;102072.23;105952;1264;59099;-71
2023/01/02 00:34:25;;;;;;;65.40;35.80;;;;;;;4.03;100.00;102071.56;106007;1273;72699;-72
2023/01/02 00:36:54;;;;;;;66.40;36.90;;;;;;;4.05;100.00;102067.39;106065;1256;71721;-72
2023/01/02 00:39:23;;;;;;;68.80;37.00;;;;;;;4.02;100.00;102063.83;106184;1261;59685;-72
2023/01/02 00:41:53;;;;;;;63.40;36.00;;;;;;;4.01;100.00;102063.68;106086;1260;63220;-72
2023/01/02 00:44:22;;;;;;;69.10;37.50;;;;;;;3.99;100.00;102064.77;106028;1273;57359;-73
2023/01/02 00:46:53;;;;;;;59.90;35.10;;;;;;;3.96;100.00;102064.48;106035;1261;60375;-71
2023/01/02 00:49:22;;;;;;;65.90;36.70;;;;;;;3.93;100.00;102068.85;105558;1263;386864;-71
2023/01/02 00:51:50;;;;;;;68.00;37.50;;;;;;;3.91;100.00;102066.16;105974;1260;71993;-72
2023/01/02 00:54:19;;;;;;;68.70;36.30;;;;;;;3.89;100.00;102067.05;106113;1270;71656;-71
2023/01/02 00:56:48;;;;;;;63.50;35.80;;;;;;;3.87;100.00;102066.77;105743;1270;64031;-71
2023/01/02 00:59:17;;;;;;;61.20;34.40;;;;;;;3.82;100.00;102069.98;106050;1260;59151;-71
2023/01/02 01:01:46;;;;;;;71.30;38.80;;;;;;;3.78;100.00;102066.45;106178;1259;58759;-71
2023/01/02 01:04:16;;;;;;;65.40;35.90;;;;;;;3.75;100.00;102066.53;106290;1269;62376;-71
2023/01/02 01:06:45;;;;;;;61.00;33.90;;;;;;;3.73;100.00;102066.06;106237;1268;61507;-72
2023/01/02 01:09:14;;;;;;;51.10;28.80;;;;;;;3.68;100.00;102065.98;106174;1264;59493;-71
2023/01/02 01:11:43;;;;;;;51.40;30.50;;;;;;;3.62;100.00;102068.54;105843;1256;73036;-73
2023/01/02 01:14:12;;;;;;;56.20;32.00;;;;;;;3.57;100.00;102069.00;105934;1260;62276;-71
2023/01/02 01:16:41;;;;;;;52.60;30.70;;;;;;;3.50;100.00;102070.52;105937;1260;61508;-70
2023/01/02 01:19:10;;;;;;;53.70;30.40;;;;;;;3.42;100.00;102068.44;105896;1258;73994;-71
2023/01/02 01:21:39;;;;;;;58.10;31.40;;;;;;;3.34;100.00;102072.56;105880;1269;61445;-71
2023/01/02 01:24:08;;;;;;;57.40;30.50;;;;;;;3.27;100.00;102070.31;105961;1264;59381;-71
2023/01/02 01:26:37;;;;;;;59.60;31.40;;;;;;;3.22;100.00;102067.48;105882;1255;63491;-70
2023/01/02 01:29:06;;;;;;;61.80;33.80;;;;;;;3.20;100.00;102062.54;105986;1260;59090;-70
2023/01/02 01:31:35;;;;;;;51.10;29.50;;;;;;;3.17;100.00;102057.42;105980;1264;59149;-71
2023/01/02 01:34:04;;;;;;;53.20;30.10;;;;;;;3.14;100.00;102060.41;108159;1254;62217;-71
2023/01/02 01:36:35;;;;;;;51.70;29.50;;;;;;;3.16;100.00;102064.83;108307;1255;61582;-71
2023/01/02 01:39:04;;;;;;;52.70;30.80;;;;;;;3.13;100.00;102066.95;108058;1260;59198;-72
2023/01/02 01:41:33;;;;;;;64.20;35.10;;;;;;;3.10;100.00;102062.20;108251;1257;74558;-72
2023/01/02 01:44:57;;;;;;;59.80;32.50;;;;;;;3.11;100.00;102064.25;108080;1254;62357;-71
2023/01/02 01:47:51;;;;;;;51.90;30.30;;;;;;;3.10;100.00;102062.71;107570;1273;60735;-71
2023/01/02 01:50:28;;;;;;;55.20;31.20;;;;;;;3.07;100.00;102061.06;108067;1257;72246;-72
2023/01/02 01:53:06;;;;;;;57.20;33.40;;;;;;;3.09;100.00;102061.37;108206;1255;68904;-71
2023/01/02 01:55:46;;;;;;;57.20;31.50;;;;;;;3.09;100.00;102058.79;108207;1257;70359;-71
2023/01/02 01:58:56;;;;;;;66.40;33.70;;;;;;;3.11;100.00;102055.64;108127;1255;72894;-72
2023/01/02 02:01:25;;;;;;;55.90;31.80;;;;;;;3.14;100.00;102056.80;107896;1254;57053;-71
2023/01/02 02:03:55;;;;;;;61.90;33.90;;;;;;;3.14;100.00;102057.29;108179;1260;57116;-71
2023/01/02 02:06:24;;;;;;;57.60;32.10;;;;;;;3.17;100.00;102059.83;108159;1263;61998;-71
2023/01/02 02:09:20;;;;;;;60.60;34.00;;;;;;;3.16;100.00;102062.08;108315;1251;61442;-71
2023/01/02 02:11:49;;;;;;;69.80;37.50;;;;;;;3.09;100.00;102060.67;108254;1258;69631;-72
2023/01/02 02:14:18;;;;;;;64.80;34.60;;;;;;;3.04;100.00;102058.71;108285;1255;63492;-72
2023/01/02 02:17:03;;;;;;;59.30;33.20;;;;;;;3.04;100.00;102063.20;108264;1254;61222;-71
2023/01/02 02:19:56;;;;;;;57.90;30.80;;;;;;;3.01;100.00;102061.02;108164;1255;57639;-71
2023/01/02 02:22:31;;;;;;;55.20;32.20;;;;;;;2.98;100.00;102057.44;108312;1257;62889;-72
2023/01/02 02:25:28;;;;;;;53.20;31.00;;;;;;;2.91;100.00;102056.36;108304;1255;71313;-71
2023/01/02 02:28:30;;;;;;;49.30;28.10;;;;;;;2.85;100.00;102052.55;108231;1260;69349;-71
2023/01/02 02:31:18;;;;;;;56.70;30.90;;;;;;;2.77;100.00;102053.90;108301;1258;63558;-70
2023/01/02 02:34:06;;;;;;;50.90;29.90;;;;;;;2.70;100.00;102055.58;108205;1260;60997;-72
2023/01/02 02:36:59;;;;;;;54.00;29.70;;;;;;;2.68;100.00;102048.39;108194;1263;57627;-71
2023/01/02 02:39:59;;;;;;;51.60;29.80;;;;;;;2.67;100.00;102048.76;108315;1259;73449;-70
2023/01/02 02:42:38;;;;;;;51.10;29.40;;;;;;;2.66;100.00;102048.94;108389;1255;72180;-70
2023/01/02 02:45:31;;;;;;;55.20;30.20;;;;;;;2.65;100.00;102054.27;108193;1255;69906;-71
2023/01/02 02:48:12;;;;;;;57.70;31.70;;;;;;;2.67;100.00;102065.08;108399;1248;74192;-71
2023/01/02 02:51:01;;;;;;;63.50;33.10;;;;;;;2.68;100.00;102068.36;108209;1257;61887;-72
2023/01/02 02:53:48;;;;;;;53.20;30.20;;;;;;;2.68;100.00;102069.38;108243;1257;57227;-71
2023/01/02 02:56:19;;;;;;;61.80;34.50;;;;;;;2.59;100.00;102060.73;108116;1260;62166;-72
2023/01/02 02:58:48;;;;;;;57.00;33.30;;;;;;;2.66;100.00;102064.41;108237;1266;61569;-72
2023/01/02 03:01:18;;;;;;;55.30;33.20;;;;;;;2.67;100.00;102062.67;108177;1266;60068;-71
2023/01/02 03:03:47;;;;;;;60.70;33.60;;;;;;;2.69;100.00;102069.01;108114;1257;65034;-71
2023/01/02 03:06:18;;;;;;;51.90;28.60;;;;;;;2.71;100.00;102072.91;108291;1250;57675;-71
2023/01/02 03:09:17;;;;;;;54.60;31.40;;;;;;;2.70;100.00;102075.88;108312;1249;57630;-71
2023/01/02 03:12:04;;;;;;;44.00;25.30;;;;;;;2.60;100.00;102082.73;108256;1263;72712;-71
2023/01/02 03:14:55;;;;;;;51.30;29.20;;;;;;;2.58;100.00;102081.94;108271;1255;72018;-72
2023/01/02 03:17:37;;;;;;;52.70;30.00;;;;;;;2.60;100.00;102080.70;108191;1254;59471;-72
2023/01/02 03:20:12;;;;;;;53.80;29.20;;;;;;;2.62;100.00;102081.34;108110;1259;73058;-71
2023/01/02 03:22:48;;;;;;;49.20;28.30;;;;;;;2.65;100.00;102085.73;108223;1260;62394;-71
2023/01/02 03:25:19;;;;;;;47.10;26.50;;;;;;;2.63;100.00;102082.19;108174;1263;61498;-72
2023/01/02 03:27:51;;;;;;;44.30;25.70;;;;;;;2.59;100.00;102081.40;108131;1263;63348;-72
2023/01/02 03:30:21;;;;;;;50.10;28.20;;;;;;;2.54;100.00;102081.48;108286;1255;61587;-72
2023/01/02 03:33:12;;;;;;;54.10;31.00;;;;;;;2.54;100.00;102077.17;108239;1254;60603;-72
2023/01/02 03:35:51;;;;;;;51.60;28.60;;;;;;;2.58;100.00;102077.98;108100;1251;63166;-71
2023/01/02 03:38:27;;;;;;;55.00;29.20;;;;;;;2.59;100.00;102077.27;108246;1254;61204;-72
2023/01/02 03:41:08;;;;;;;64.20;33.20;;;;;;;2.57;100.00;102081.42;108182;1258;59815;-71
2023/01/02 03:43:40;;;;;;;55.00;29.70;;;;;;;2.60;100.00;102084.64;108146;1260;73943;-71
2023/01/02 03:46:25;;;;;;;57.20;31.50;;;;;;;2.56;100.00;102084.70;108390;1249;72507;-71
2023/01/02 03:49:03;;;;;;;54.60;30.40;;;;;;;2.55;100.00;102085.59;108203;1263;59584;-71
2023/01/02 03:51:34;;;;;;;51.40;28.70;;;;;;;2.52;100.00;102085.98;108149;1256;73840;-73
2023/01/02 03:54:04;;;;;;;51.80;30.90;;;;;;;2.44;100.00;102095.23;108245;1252;63085;-71
2023/01/02 03:56:56;;;;;;;56.30;32.50;;;;;;;2.42;100.00;102091.30;108088;1257;57180;-71
2023/01/02 03:59:46;;;;;;;54.00;30.50;;;;;;;2.43;100.00;102085.45;108245;1263;62915;-72
2023/01/02 04:02:37;;;;;;;59.30;31.60;;;;;;;2.46;100.00;102084.72;108335;1249;60855;-71
2023/01/02 04:05:37;;;;;;;55.60;29.00;;;;;;;2.46;100.00;102087.65;108224;1252;71200;-72
2023/01/02 04:08:27;;;;;;;57.30;31.80;;;;;;;2.44;100.00;102080.95;108346;1255;74916;-72
2023/01/02 04:11:00;;;;;;;56.00;31.10;;;;;;;2.41;100.00;102082.38;108230;1258;57618;-72
2023/01/02 04:13:38;;;;;;;51.00;28.90;;;;;;;2.39;100.00;102083.29;108106;1266;60618;-71
2023/01/02 04:16:12;;;;;;;55.60;30.20;;;;;;;2.35;100.00;102088.85;108330;1254;63677;-72
2023/01/02 04:18:51;;;;;;;56.50;32.20;;;;;;;2.33;100.00;102094.72;108298;1254;72063;-72
2023/01/02 04:21:27;;;;;;;52.50;30.40;;;;;;;2.35;100.00;102097.77;108268;1256;59774;-72
2023/01/02 04:24:06;;;;;;;54.40;30.00;;;;;;;2.33;100.00;102090.95;108149;1259;72849;-70
2023/01/02 04:26:51;;;;;;;53.40;29.80;;;;;;;2.39;100.00;102099.95;108132;1252;57650;-72
2023/01/02 04:29:20;;;;;;;50.80;29.10;;;;;;;2.36;100.00;102093.80;108211;1263;61288;-71
2023/01/02 04:32:00;;;;;;;48.80;29.90;;;;;;;2.37;100.00;102093.97;108143;1264;64392;-70
2023/01/02 04:34:35;;;;;;;56.40;30.50;;;;;;;2.37;100.00;102098.78;108185;1258;62243;-71
2023/01/02 04:37:03;;;;;;;55.30;31.50;;;;;;;2.33;100.00;102100.22;107993;1256;70408;-71
2023/01/02 04:39:34;;;;;;;60.50;33.00;;;;;;;2.30;100.00;102095.63;108117;1257;63251;-72
2023/01/02 04:42:03;;;;;;;55.30;29.70;;;;;;;2.30;100.00;102100.45;107999;1253;60445;-70
2023/01/02 04:44:32;;;;;;;54.60;30.30;;;;;;;2.27;100.00;102100.83;108008;1250;57642;-71
2023/01/02 04:47:01;;;;;;;53.40;30.80;;;;;;;2.25;100.00;102099.85;108128;1246;71578;-71
2023/01/02 04:49:30;;;;;;;51.10;28.70;;;;;;;2.26;100.00;102100.67;108246;1263;61517;-72
2023/01/02 04:51:59;;;;;;;54.60;30.20;;;;;;;2.24;100.00;102106.89;107985;1253;69683;-70
2023/01/02 04:54:27;;;;;;;53.80;30.70;;;;;;;2.23;100.00;102102.45;107894;1257;73994;-72
2023/01/02 04:56:56;;;;;;;51.00;29.40;;;;;;;2.25;100.00;102094.85;108168;1260;57676;-71
2023/01/02 04:59:25;;;;;;;53.70;31.30;;;;;;;2.27;100.00;102092.59;108248;1254;57650;-72
2023/01/02 05:01:55;;;;;;;53.50;30.00;;;;;;;2.29;100.00;102089.29;108249;1261;72130;-73
2023/01/02 05:04:24;;;;;;;48.40;27.60;;;;;;;2.29;100.00;102094.63;108400;1258;71396;-73
2023/01/02 05:06:53;;;;;;;53.30;29.00;;;;;;;2.26;100.00;102099.48;108299;1254;70890;-70
2023/01/02 05:09:21;;;;;;;56.30;31.60;;;;;;;2.24;100.00;102101.75;108131;1261;73605;-71
2023/01/02 05:11:50;;;;;;;53.80;30.70;;;;;;;2.23;100.00;102100.20;108251;1254;57330;-71
2023/01/02 05:14:19;;;;;;;58.90;33.40;;;;;;;2.24;100.00;102101.39;108275;1254;57084;-71
2023/01/02 05:16:48;;;;;;;53.60;30.80;;;;;;;2.28;100.00;102106.68;108318;1256;62976;-70
2023/01/02 05:19:17;;;;;;;53.10;29.90;;;;;;;2.30;100.00;102110.08;108402;1255;60542;-71
2023/01/02 05:24:33;;;;;;;53.50;29.70;;;;;;;2.31;100.00;102108.34;108333;1260;63601;-76
2023/01/02 05:27:02;;;;;;;54.60;30.70;;;;;;;2.30;100.00;102114.70;108228;1254;61164;-73
2023/01/02 05:29:31;;;;;;;51.20;29.00;;;;;;;2.30;100.00;102117.63;108277;1254;57672;-73
2023/01/02 05:32:00;;;;;;;51.20;30.60;;;;;;;2.25;100.00;102118.58;108353;1260;62897;-72
2023/01/02 05:34:29;;;;;;;54.80;29.20;;;;;;;2.20;100.00;102117.79;108450;1254;60737;-73
2023/01/02 05:36:58;;;;;;;57.40;30.40;;;;;;;2.16;100.00;102120.78;108245;1254;70352;-74
2023/01/02 05:39:27;;;;;;;53.90;31.70;;;;;;;2.12;100.00;102124.10;108284;1260;74587;-70
2023/01/02 05:41:56;;;;;;;51.50;30.10;;;;;;;2.11;100.00;102126.88;108324;1254;59909;-72
2023/01/02 05:44:27;;;;;;;54.80;31.30;;;;;;;2.14;100.00;102131.29;108143;1257;57202;-71
2023/01/02 05:46:56;;;;;;;54.50;30.70;;;;;;;2.16;100.00;102137.29;108338;1258;62954;-72
2023/01/02 05:49:25;;;;;;;56.10;31.30;;;;;;;2.17;100.00;102143.45;108371;1250;72073;-72
2023/01/02 05:51:54;;;;;;;58.40;30.90;;;;;;;2.19;100.00;102139.98;108192;1254;70204;-72
2023/01/02 05:54:22;;;;;;;56.30;32.20;;;;;;;2.18;100.00;102139.31;108272;1248;73708;-71
2023/01/02 05:56:51;;;;;;;54.80;30.40;;;;;;;2.22;100.00;102138.56;108282;1254;57712;-72
2023/01/02 05:59:23;;;;;;;53.30;29.20;;;;;;;2.24;100.00;102136.98;108249;1259;57157;-71
2023/01/02 06:01:52;;;;;;;51.20;30.80;;;;;;;2.23;100.00;102135.63;108193;1254;73485;-72
2023/01/02 06:04:20;;;;;;;51.80;29.50;;;;;;;2.20;100.00;102130.69;108324;1248;72419;-71
2023/01/02 06:06:49;;;;;;;46.90;28.60;;;;;;;2.18;100.00;102130.21;108284;1254;59836;-71
2023/01/02 06:09:18;;;;;;;53.70;29.80;;;;;;;2.13;100.00;102127.17;108296;1248;63045;-72
2023/01/02 06:11:50;;;;;;;58.00;32.20;;;;;;;2.11;100.00;102127.56;108212;1258;61028;-72
2023/01/02 06:14:21;;;;;;;57.80;32.00;;;;;;;2.10;100.00;102127.73;108142;1263;61489;-72
2023/01/02 06:16:49;;;;;;;65.00;34.30;;;;;;;2.11;100.00;102124.80;108297;1263;73153;-73
2023/01/02 06:19:18;;;;;;;65.00;32.40;;;;;;;2.11;100.00;102127.55;108413;1258;62118;-71
2023/01/02 06:21:47;;;;;;;56.90;33.10;;;;;;;2.16;100.00;102127.14;108185;1260;59958;-72
2023/01/02 06:24:16;;;;;;;60.90;33.40;;;;;;;2.23;100.00;102133.22;108161;1258;71885;-72
2023/01/02 06:26:45;;;;;;;58.60;33.40;;;;;;;2.26;100.00;102137.64;108278;1261;60358;-73
2023/01/02 06:29:14;;;;;;;62.10;35.70;;;;;;;2.29;100.00;102130.90;108301;1253;60388;-74
2023/01/02 06:31:43;;;;;;;60.50;34.70;;;;;;;2.34;100.00;102137.34;108312;1258;73922;-72
2023/01/02 06:34:18;;;;;;;67.10;34.90;;;;;;;2.37;100.00;102140.22;108365;1248;71099;-72
2023/01/02 06:36:47;;;;;;;60.70;33.60;;;;;;;2.33;100.00;102138.39;108284;1258;61065;-72
2023/01/02 06:39:16;;;;;;;59.90;33.60;;;;;;;2.33;100.00;102138.21;108281;1253;62441;-72
2023/01/02 06:41:45;;;;;;;61.00;33.90;;;;;;;2.37;100.00;102140.05;108427;1255;57631;-71
2023/01/02 06:44:14;;;;;;;57.60;34.40;;;;;;;2.42;100.00;102139.63;108317;1257;60287;-71
2023/01/02 06:46:42;;;;;;;67.20;35.10;;;;;;;2.46;100.00;102135.80;108151;1254;73326;-72
2023/01/02 06:49:11;;;;;;;67.00;36.00;;;;;;;2.48;100.00;102139.02;108265;1252;61482;-72
2023/01/02 06:51:40;;;;;;;62.60;36.50;;;;;;;2.51;100.00;102140.87;108324;1248;59964;-72
2023/01/02 06:54:09;;;;;;;66.20;36.90;;;;;;;2.54;100.00;102146.31;108198;1254;62740;-72
2023/01/02 06:56:38;;;;;;;66.90;37.30;;;;;;;2.56;100.00;102144.39;108320;1262;61112;-73
2023/01/02 06:59:06;;;;;;;63.50;36.80;;;;;;;2.66;100.00;102151.45;108267;1254;61493;-71
2023/01/02 07:01:35;;;;;;;66.60;33.90;;;;;;;2.68;100.00;102147.81;108331;1259;63689;-75
2023/01/02 07:04:04;;;;;;;66.30;37.30;;;;;;;2.60;100.00;102145.70;108437;1248;61528;-72
2023/01/02 07:06:33;;;;;;;77.10;40.90;;;;;;;2.50;100.00;102146.38;108309;1257;59711;-72
2023/01/02 07:09:02;;;;;;;70.20;38.50;;;;;;;2.53;100.00;102153.55;108270;1259;62811;-72
2023/01/02 07:11:31;;;;;;;69.40;38.60;;;;;;;2.51;100.00;102158.75;108184;1250;60443;-73
2023/01/02 07:14:00;;;;;;;61.60;36.80;;;;;;;2.56;100.00;102155.40;108098;1256;57591;-72
2023/01/02 07:16:29;;;;;;;64.60;36.70;;;;;;;2.71;100.00;102152.92;108204;1256;63072;-72
2023/01/02 07:18:58;;;;;;;64.70;37.40;;;;;;;2.81;100.00;102156.38;108380;1254;70342;-72
2023/01/02 07:21:27;;;;;;;63.40;36.20;;;;;;;2.86;100.00;102154.38;108121;1258;68859;-72
2023/01/02 07:23:56;;;;;;;61.50;35.80;;;;;;;2.89;100.00;102158.64;108329;1252;73952;-72
2023/01/02 07:26:24;;;;;;;59.40;35.90;;;;;;;2.86;100.00;102156.80;108202;1263;61508;-72
2023/01/02 07:28:53;;;;;;;63.40;38.00;;;;;;;2.82;100.00;102154.63;108291;1261;57700;-72
2023/01/02 07:31:22;;;;;;;58.90;36.30;;;;;;;2.84;100.00;102146.15;108201;1260;62964;-72
2023/01/02 07:33:51;;;;;;;66.00;38.50;;;;;;;2.85;100.00;102144.06;108386;1263;61577;-74
2023/01/02 07:36:21;;;;;;;65.10;39.20;;;;;;;2.77;100.00;102140.61;108251;1258;70390;-73
2023/01/02 07:38:56;;;;;;;60.70;36.30;;;;;;;2.86;100.00;102138.02;108150;1260;73546;-72
2023/01/02 07:41:25;;;;;;;60.90;37.70;;;;;;;2.98;100.00;102140.23;108036;1265;62351;-72
2023/01/02 07:43:55;;;;;;;62.80;39.00;;;;;;;3.10;100.00;102145.00;108198;1254;57691;-72
2023/01/02 07:46:24;;;;;;;61.90;37.00;;;;;;;3.26;100.00;102146.27;107921;1254;73482;-72
2023/01/02 07:48:53;;;;;;;57.90;36.00;;;;;;;3.33;100.00;102151.13;108135;1251;61509;-72
2023/01/02 07:51:22;;;;;;;57.90;35.10;;;;;;;3.35;100.00;102152.80;108110;1256;70395;-72
2023/01/02 07:53:56;;;;;;;59.70;35.30;;;;;;;3.34;100.00;102154.89;108080;1254;73599;-73
2023/01/02 07:56:25;;;;;;;59.10;35.30;;;;;;;3.36;100.00;102164.14;107902;1264;57175;-72
2023/01/02 07:58:54;;;;;;;56.70;32.50;;;;;;;3.44;100.00;102160.91;107999;1263;61056;-72
2023/01/02 08:01:23;;;;;;;53.90;33.00;;;;;;;3.48;100.00;102158.58;108133;1263;73163;-73
2023/01/02 08:03:52;;;;;;;60.00;33.60;;;;;;;3.52;100.00;102158.33;108262;1254;61860;-73
2023/01/02 08:06:21;;;;;;;55.70;33.40;;;;;;;3.62;100.00;102159.66;108042;1254;59967;-72
2023/01/02 08:08:50;;;;;;;58.40;34.40;;;;;;;3.74;100.00;102155.81;108044;1250;72856;-73
2023/01/02 08:11:21;;;;;;;56.70;35.20;;;;;;;3.89;100.00;102160.16;108118;1258;63164;-73
2023/01/02 08:13:50;;;;;;;57.20;36.30;;;;;;;4.05;100.00;102156.70;107912;1259;61118;-73
2023/01/02 08:16:21;;;;;;;59.10;37.20;;;;;;;4.19;100.00;102154.14;108014;1258;74002;-72
2023/01/02 08:18:57;;;;;;;52.90;35.50;;;;;;;4.23;100.00;102154.55;108033;1258;72126;-73
2023/01/02 08:21:26;;;;;;;53.80;34.70;;;;;;;4.32;100.00;102151.27;108034;1257;70755;-72
2023/01/02 08:23:54;;;;;;;57.90;34.30;;;;;;;4.32;100.00;102149.67;107996;1257;74203;-73
2023/01/02 08:26:24;;;;;;;57.10;35.10;;;;;;;4.40;100.00;102153.83;108018;1250;58290;-73
2023/01/02 08:28:53;;;;;;;52.70;34.20;;;;;;;4.49;100.00;102159.98;108140;1256;60475;-73
2023/01/02 08:31:21;;;;;;;55.00;33.80;;;;;;;4.60;100.00;102164.39;108024;1254;74657;-72
2023/01/02 08:33:50;;;;;;;52.00;33.80;;;;;;;4.65;100.00;102163.74;108137;1255;72623;-74
2023/01/02 08:36:19;;;;;;;50.20;34.30;;;;;;;4.75;100.00;102164.02;108116;1259;59849;-74
2023/01/02 08:38:48;;;;;;;54.60;35.40;;;;;;;4.81;100.00;102164.71;108050;1259;62418;-72
2023/01/02 08:41:38;;;;;;;53.10;35.20;;;;;;;4.91;100.00;102164.98;108098;1254;60769;-73
2023/01/02 08:44:07;;;;;;;54.00;33.00;;;;;;;5.05;100.00;102163.59;108045;1256;58434;-72
2023/01/02 08:46:36;;;;;;;54.70;34.80;;;;;;;5.15;100.00;102166.77;108132;1256;64354;-73
2023/01/02 08:49:11;;;;;;;59.40;36.60;;;;;;;5.34;100.00;102164.35;108246;1251;61557;-74
2023/01/02 08:51:40;;;;;;;67.30;40.30;;;;;;;5.51;100.00;102162.69;108135;1254;69647;-74
2023/01/02 08:54:08;;;;;;;50.80;33.30;;;;;;;5.69;100.00;102162.00;108247;1263;72564;-73
2023/01/02 08:56:38;;;;;;;53.30;33.40;;;;;;;5.88;100.00;102153.85;108362;1258;57724;-73
2023/01/02 08:59:10;;;;;;;54.30;34.30;;;;;;;6.08;100.00;102153.95;108166;1254;61207;-72
2023/01/02 09:01:40;;;;;;;52.60;35.20;;;;;;;6.08;100.00;102150.30;108191;1257;64110;-73
2023/01/02 09:04:09;;;;;;;54.60;33.90;;;;;;;6.14;100.00;102145.30;108194;1247;72122;-74
2023/01/02 09:06:42;;;;;;;49.60;31.40;;;;;;;6.20;100.00;102143.90;108110;1258;69927;-73
2023/01/02 09:09:14;;;;;;;57.70;36.20;;;;;;;6.23;100.00;102141.02;108362;1245;73667;-73
2023/01/02 09:11:49;;;;;;;53.60;33.50;;;;;;;6.36;100.00;102135.75;108182;1260;57669;-73
2023/01/02 09:14:21;;;;;;;56.10;34.60;;;;;;;6.49;100.00;102127.92;108246;1248;57779;-73
2023/01/02 09:16:51;;;;;;;53.00;32.70;;;;;;;6.58;100.00;102124.34;108163;1254;74343;-72
2023/01/02 09:19:20;;;;;;;56.10;34.40;;;;;;;6.78;100.00;102119.33;108183;1256;73324;-72
2023/01/02 09:21:48;;;;;;;52.90;34.60;;;;;;;6.85;100.00;102113.89;108138;1254;70830;-73
2023/01/02 09:24:17;;;;;;;52.50;34.80;;;;;;;6.90;100.00;102111.82;108142;1260;62878;-72
2023/01/02 09:26:46;;;;;;;51.00;32.70;;;;;;;7.01;100.00;102104.69;108101;1259;58254;-72
2023/01/02 09:29:16;;;;;;;51.80;30.10;;;;;;;7.02;99.89;102096.84;108096;1260;60256;-74
2023/01/02 09:31:45;;;;;;;52.50;33.30;;;;;;;7.08;99.47;102090.56;108148;1254;74711;-74
2023/01/02 09:34:14;;;;;;;55.00;34.40;;;;;;;7.23;99.41;102085.02;108168;1263;72219;-74
2023/01/02 09:36:42;;;;;;;54.30;33.50;;;;;;;7.31;99.09;102084.88;108259;1254;69984;-74
2023/01/02 09:39:11;;;;;;;51.40;33.20;;;;;;;7.46;98.25;102079.28;108211;1258;71921;-72
2023/01/02 09:41:46;;;;;;;48.90;32.20;;;;;;;7.58;97.18;102069.11;108272;1258;57787;-73
2023/01/02 09:44:25;;;;;;;48.90;33.10;;;;;;;7.67;96.31;102065.33;108121;1260;60385;-72
2023/01/02 09:47:09;;;;;;;55.60;36.10;;;;;;;7.72;96.13;102062.02;108178;1257;63587;-73
2023/01/02 09:49:48;;;;;;;56.00;37.00;;;;;;;7.88;95.85;102057.54;108361;1259;61428;-72
2023/01/02 09:52:31;;;;;;;49.70;32.70;;;;;;;8.08;94.84;102060.55;108182;1254;59085;-75
2023/01/02 09:55:01;;;;;;;48.30;31.60;;;;;;;8.16;93.88;102061.98;108143;1260;63265;-73
2023/01/02 09:57:41;;;;;;;49.50;31.80;;;;;;;8.25;92.90;102053.63;108093;1263;60503;-73
2023/01/02 10:00:19;;;;;;;50.20;33.30;;;;;;;8.42;92.66;102048.25;108244;1259;60661;-72
2023/01/02 10:03:11;;;;;;;47.80;31.00;;;;;;;8.55;92.23;102046.14;108277;1255;63597;-73
2023/01/02 10:05:40;;;;;;;50.00;31.40;;;;;;;8.77;91.68;102045.55;108428;1254;60651;-72
2023/01/02 10:08:24;;;;;;;45.80;28.40;;;;;;;8.86;90.76;102040.45;108283;1263;69624;-71
2023/01/02 10:11:23;;;;;;;53.60;32.70;;;;;;;8.99;89.75;102034.15;108305;1254;74113;-73
2023/01/02 10:14:07;;;;;;;46.80;31.10;;;;;;;9.04;88.72;102034.63;108208;1250;58150;-72
2023/01/02 10:16:56;;;;;;;44.60;30.10;;;;;;;9.33;89.84;102026.52;108226;1254;61077;-73
2023/01/02 10:19:47;;;;;;;47.50;29.90;;;;;;;9.42;88.31;102019.15;108253;1254;74343;-72
2023/01/02 10:22:23;;;;;;;49.30;30.40;;;;;;;9.36;86.98;102015.26;108256;1260;61440;-73
2023/01/02 10:25:18;;;;;;;48.10;30.80;;;;;;;9.46;86.43;102007.65;108319;1263;59109;-74
2023/01/02 10:27:56;;;;;;;44.50;30.10;;;;;;;9.48;85.77;102012.98;108292;1259;72475;-76
2023/01/02 10:30:32;;;;;;;48.70;31.90;;;;;;;9.62;85.50;102014.02;108222;1259;60068;-72
2023/01/02 10:33:12;;;;;;;51.00;33.80;;;;;;;9.76;84.41;102008.69;108340;1250;61561;-74
2023/01/02 10:35:52;;;;;;;54.50;36.00;;;;;;;10.00;83.74;102004.00;108223;1253;74740;-76
2023/01/02 10:38:21;;;;;;;72.60;35.80;;;;;;;10.22;82.06;102000.29;108202;1254;61894;-72
2023/01/02 10:40:50;;;;;;;49.70;34.80;;;;;;;10.37;80.56;101999.05;108079;1260;59971;-73
2023/01/02 10:43:19;;;;;;;51.40;34.10;;;;;;;10.53;80.39;102002.20;108255;1263;62518;-73
2023/01/02 10:45:48;;;;;;;49.60;32.40;;;;;;;10.67;79.47;101999.74;108226;1254;58186;-76
2023/01/02 10:48:21;;;;;;;43.40;28.80;;;;;;;10.86;79.11;101993.03;108192;1259;60605;-74
2023/01/02 10:50:56;;;;;;;46.40;32.70;;;;;;;11.15;78.59;101988.50;108145;1256;74708;-76
2023/01/02 10:53:33;;;;;;;45.00;31.30;;;;;;;11.20;77.34;101981.90;108279;1249;71708;-71
2023/01/02 10:56:19;;;;;;;40.30;27.10;;;;;;;11.23;76.95;101975.48;108194;1255;59354;-74
2023/01/02 10:58:50;;;;;;;44.10;29.80;;;;;;;11.44;76.40;101975.20;108183;1254;73052;-72
2023/01/02 11:01:21;;;;;;;43.80;28.30;;;;;;;11.68;76.16;101965.81;108257;1258;61486;-73
2023/01/02 11:03:53;;;;;;;42.40;28.40;;;;;;;11.88;75.66;101955.08;108006;1254;58195;-74
2023/01/02 11:06:26;;;;;;;41.20;28.10;;;;;;;12.11;74.75;101963.67;108188;1259;63684;-74
2023/01/02 11:09:27;;;;;;;41.10;27.50;;;;;;;12.15;73.79;101960.14;108263;1255;72135;-73
2023/01/02 11:12:12;;;;;;;39.00;26.90;;;;;;;12.14;73.57;101960.58;108320;1244;59787;-72
2023/01/02 11:14:41;;;;;;;40.20;28.60;;;;;;;12.15;73.64;101950.72;108192;1263;62421;-73
2023/01/02 11:17:20;;;;;;;40.30;28.30;;;;;;;12.14;73.94;101947.95;108269;1259;57791;-73
2023/01/02 11:19:55;;;;;;;38.60;27.00;;;;;;;12.51;72.95;101946.27;108194;1263;58233;-74
2023/01/02 11:22:35;;;;;;;38.50;25.90;;;;;;;12.58;72.48;101939.02;108087;1254;74210;-74
2023/01/02 11:25:14;;;;;;;35.80;26.10;;;;;;;12.75;71.71;101939.73;108332;1250;71774;-73
2023/01/02 11:27:44;;;;;;;39.70;26.40;;;;;;;13.21;71.40;101935.27;108167;1254;60272;-73
2023/01/02 11:30:36;;;;;;;37.90;26.90;;;;;;;13.70;70.95;101929.99;108236;1254;73797;-73
2023/01/02 11:33:23;;;;;;;39.80;27.50;;;;;;;13.54;68.19;101924.52;108155;1258;61481;-73
2023/01/02 11:35:56;;;;;;;39.20;28.30;;;;;;;13.39;69.37;101924.82;108223;1260;58162;-74